Time;durP1;ratioP1;P1;durP2;ratioP2;P2;SDS_P1;SDS_P2;PMS_P1;PMS_P2;Temp;Humidity;BMP_temperature;BMP_pressure;BME280_temperature;BME280_humidity;BME280_pressure;Samples;Min_cycle;Max_cycle;Signal;HPM_P1;HPM_P2
2022/01/14 00:02:04;;;;;;;8.40;4.22;;;6.20;99.90;;;;;;4996042;28;20843;-82
2022/01/14 00:04:30;;;;;;;19.67;9.30;;;6.20;99.90;;;;;;5010296;28;20108;-82
2022/01/14 00:06:56;;;;;;;8.50;4.63;;;6.20;99.90;;;;;;5011714;28;20041;-82
2022/01/14 00:09:22;;;;;;;12.32;7.97;;;6.20;99.90;;;;;;5009094;28;20072;-82
2022/01/14 00:11:56;;;;;;;30.80;10.23;;;6.30;99.90;;;;;;4993549;28;20498;-81
2022/01/14 00:14:40;;;;;;;10.18;6.20;;;6.30;99.90;;;;;;4992995;28;20100;-82
2022/01/14 00:17:14;;;;;;;28.08;7.65;;;6.30;99.90;;;;;;5009326;28;20045;-81
2022/01/14 00:19:41;;;;;;;20.83;8.35;;;6.30;99.90;;;;;;4994923;28;20056;-81
2022/01/14 00:22:12;;;;;;;16.23;8.15;;;6.40;99.90;;;;;;5008935;28;20359;-81
2022/01/14 00:33:04;;;;;;;17.23;7.50;;;6.30;99.90;;;;;;5016762;28;20130;-81
2022/01/14 00:35:30;;;;;;;8.57;4.70;;;6.30;99.90;;;;;;5008318;28;20069;-81
2022/01/14 00:37:55;;;;;;;18.70;8.85;;;6.30;99.90;;;;;;4994705;28;20088;-81
2022/01/14 00:40:21;;;;;;;19.50;8.07;;;6.30;99.90;;;;;;5008023;28;20061;-81
2022/01/14 00:42:48;;;;;;;8.15;4.05;;;6.30;99.90;;;;;;4993221;28;20037;-82
2022/01/14 00:45:14;;;;;;;6.18;4.30;;;6.30;99.90;;;;;;4995249;28;20038;-82
2022/01/14 00:47:40;;;;;;;15.88;6.40;;;6.30;99.90;;;;;;5013453;28;20060;-81
2022/01/14 00:50:08;;;;;;;13.32;5.40;;;6.30;99.90;;;;;;5009096;28;20080;-81
2022/01/14 00:52:37;;;;;;;17.08;6.20;;;6.40;99.90;;;;;;4994800;28;20042;-82
2022/01/14 00:55:04;;;;;;;11.25;5.53;;;6.30;99.90;;;;;;5005962;28;20096;-84
2022/01/14 01:00:22;;;;;;;20.55;7.43;;;6.30;99.90;;;;;;5010332;28;20403;-84
2022/01/14 01:02:48;;;;;;;14.68;6.60;;;6.30;99.90;;;;;;4994286;28;20100;-84
2022/01/14 01:05:14;;;;;;;7.68;3.95;;;6.20;99.90;;;;;;4994497;28;20089;-84
2022/01/14 01:07:49;;;;;;;16.00;6.43;;;6.20;99.90;;;;;;5009676;28;20042;-84
2022/01/14 01:10:17;;;;;;;16.63;8.50;;;6.10;99.90;;;;;;4994081;28;20128;-84
2022/01/14 01:12:53;;;;;;;23.55;8.75;;;6.10;99.90;;;;;;4991727;28;20049;-84
2022/01/14 01:15:20;;;;;;;10.52;4.13;;;6.10;99.90;;;;;;4988575;28;20065;-84
2022/01/14 01:17:47;;;;;;;2.67;2.22;;;6.10;99.90;;;;;;5006552;28;20096;-84
2022/01/14 01:20:17;;;;;;;13.75;5.80;;;6.10;99.90;;;;;;4993107;28;20107;-84
2022/01/14 01:22:48;;;;;;;16.80;8.57;;;6.10;99.90;;;;;;5009133;28;20053;-84
2022/01/14 01:25:16;;;;;;;3.63;0.95;;;6.10;99.90;;;;;;5009209;28;20046;-84
2022/01/14 01:27:44;;;;;;;0.30;0.30;;;6.10;99.90;;;;;;4992540;28;20068;-83
2022/01/14 01:32:57;;;;;;;13.15;4.00;;;6.00;99.90;;;;;;5005812;28;20441;-84
2022/01/14 01:35:23;;;;;;;0.88;0.82;;;6.00;99.90;;;;;;5010381;28;20041;-84
2022/01/14 01:37:48;;;;;;;4.18;2.05;;;6.00;99.90;;;;;;4992008;28;20044;-84
2022/01/14 01:40:15;;;;;;;0.60;0.60;;;6.00;99.90;;;;;;5007940;28;20092;-84
2022/01/14 01:42:43;;;;;;;5.35;3.70;;;5.90;99.90;;;;;;4995502;28;20686;-84
2022/01/14 01:45:12;;;;;;;1.38;1.27;;;6.00;99.90;;;;;;4994330;28;20069;-84
2022/01/14 01:47:38;;;;;;;15.27;7.03;;;6.00;99.90;;;;;;5008052;28;20041;-84
2022/01/14 01:50:15;;;;;;;11.98;7.32;;;6.00;99.90;;;;;;5008821;28;20050;-84
2022/01/14 01:52:41;;;;;;;4.20;2.72;;;6.00;99.90;;;;;;4993099;28;20083;-85
2022/01/14 01:55:08;;;;;;;0.47;0.47;;;6.00;99.90;;;;;;5004032;28;20040;-84
2022/01/14 01:57:34;;;;;;;15.85;7.53;;;6.00;99.90;;;;;;4990629;28;20053;-84
2022/01/14 02:00:00;;;;;;;0.80;0.80;;;6.00;99.90;;;;;;4992824;28;20092;-84
2022/01/14 02:02:27;;;;;;;0.90;0.90;;;6.00;99.90;;;;;;5010572;28;20052;-84
2022/01/14 02:04:53;;;;;;;4.28;3.22;;;6.00;99.90;;;;;;4997457;28;20069;-84
2022/01/14 02:07:19;;;;;;;3.30;2.55;;;6.00;99.90;;;;;;4986941;28;20592;-84
2022/01/14 02:09:44;;;;;;;3.42;1.67;;;6.00;99.90;;;;;;4992076;28;20053;-84
2022/01/14 02:12:11;;;;;;;31.83;14.02;;;6.00;99.90;;;;;;5010509;28;20183;-84
2022/01/14 02:22:47;;;;;;;16.77;5.38;;;6.10;99.90;;;;;;5009221;28;20493;-84
2022/01/14 02:25:15;;;;;;;21.33;10.23;;;6.10;99.90;;;;;;5008814;28;20050;-84
2022/01/14 02:27:40;;;;;;;15.05;7.47;;;6.20;99.90;;;;;;4991725;28;20591;-84
2022/01/14 02:30:07;;;;;;;29.63;9.93;;;6.20;99.90;;;;;;4992598;28;20168;-84
2022/01/14 02:32:33;;;;;;;14.90;4.28;;;6.20;99.90;;;;;;5003308;28;20069;-84
2022/01/14 02:34:59;;;;;;;30.35;11.07;;;6.30;99.90;;;;;;4992968;28;20096;-84
2022/01/14 02:37:24;;;;;;;15.90;7.95;;;6.30;99.90;;;;;;4991326;28;20038;-84
2022/01/14 02:39:50;;;;;;;7.90;3.70;;;6.40;99.90;;;;;;4991657;28;20068;-84
2022/01/14 02:42:16;;;;;;;13.80;6.85;;;6.40;99.90;;;;;;4992498;28;20073;-84
2022/01/14 02:44:42;;;;;;;0.68;0.68;;;6.40;99.90;;;;;;5007920;28;20072;-84
2022/01/14 02:47:08;;;;;;;5.38;3.53;;;6.40;99.90;;;;;;5011989;28;20046;-84
2022/01/14 02:49:36;;;;;;;3.38;2.97;;;6.40;99.90;;;;;;5008050;28;20568;-83
2022/01/14 02:52:07;;;;;;;1.35;1.30;;;6.40;99.90;;;;;;4990229;28;20074;-84
2022/01/14 02:54:52;;;;;;;2.35;1.52;;;6.40;99.90;;;;;;5006413;28;20050;-84
2022/01/14 02:57:18;;;;;;;9.07;5.05;;;6.40;99.90;;;;;;4986966;28;20053;-83
2022/01/14 02:59:45;;;;;;;0.68;0.68;;;6.40;99.90;;;;;;4991264;28;20049;-84
2022/01/14 03:02:12;;;;;;;2.70;2.03;;;6.40;99.90;;;;;;5004279;28;20056;-84
2022/01/14 03:04:41;;;;;;;16.15;7.65;;;6.30;99.90;;;;;;4993478;28;20433;-84
2022/01/14 03:07:08;;;;;;;16.13;6.93;;;6.30;99.90;;;;;;4992011;28;20046;-83
2022/01/14 03:09:36;;;;;;;0.20;0.20;;;6.30;99.90;;;;;;5004994;28;20038;-83
2022/01/14 03:12:02;;;;;;;14.75;6.35;;;6.30;99.90;;;;;;5007229;28;20041;-83
2022/01/14 03:14:28;;;;;;;7.32;5.22;;;6.30;99.90;;;;;;4989801;28;20085;-83
2022/01/14 03:16:58;;;;;;;19.30;8.45;;;6.30;99.90;;;;;;5006880;28;20061;-83
2022/01/14 03:19:25;;;;;;;20.63;7.50;;;6.30;99.90;;;;;;4987475;28;20046;-84
2022/01/14 03:27:20;;;;;;;11.20;4.57;;;6.30;99.90;;;;;;5010173;28;20410;-84
2022/01/14 03:29:46;;;;;;;25.35;9.77;;;6.30;99.90;;;;;;5011223;28;20038;-84
2022/01/14 03:32:12;;;;;;;2.83;2.00;;;6.40;99.90;;;;;;4994167;28;20096;-84
2022/01/14 03:34:38;;;;;;;10.35;4.97;;;6.40;99.90;;;;;;4995173;28;20042;-84
2022/01/14 03:37:04;;;;;;;9.63;4.20;;;6.40;99.90;;;;;;4993971;28;20054;-84
2022/01/14 03:39:30;;;;;;;13.18;6.45;;;6.40;99.90;;;;;;4997098;28;20058;-84
2022/01/14 03:41:56;;;;;;;1.50;1.40;;;6.40;99.90;;;;;;5000868;28;20050;-84
2022/01/14 03:44:21;;;;;;;6.70;2.15;;;6.40;99.90;;;;;;4981610;28;20124;-84
2022/01/14 03:46:47;;;;;;;16.45;6.32;;;6.40;99.90;;;;;;4995830;28;20050;-84
2022/01/14 03:49:13;;;;;;;6.35;1.83;;;6.40;99.90;;;;;;4991908;28;20139;-84
2022/01/14 03:51:39;;;;;;;1.95;1.85;;;6.40;99.90;;;;;;4990527;28;20049;-84
2022/01/14 03:54:05;;;;;;;8.52;5.03;;;6.50;99.90;;;;;;5010531;28;20045;-84
2022/01/14 03:56:32;;;;;;;23.27;10.35;;;6.50;99.90;;;;;;4993801;28;20516;-83
2022/01/14 03:58:57;;;;;;;25.08;6.65;;;6.50;99.90;;;;;;4994014;28;20088;-84
2022/01/14 04:01:23;;;;;;;6.85;3.58;;;6.50;99.90;;;;;;4993922;28;20682;-84
2022/01/14 04:03:49;;;;;;;21.88;8.18;;;6.50;99.90;;;;;;4994742;28;20076;-84
2022/01/14 04:06:16;;;;;;;16.95;6.72;;;6.50;99.90;;;;;;4993907;28;20049;-84
2022/01/14 04:08:42;;;;;;;11.40;4.53;;;6.60;99.90;;;;;;4992875;28;20072;-84
2022/01/14 04:11:09;;;;;;;5.53;4.05;;;6.60;99.90;;;;;;5012462;28;20127;-84
2022/01/14 04:13:42;;;;;;;1.85;1.75;;;6.60;99.90;;;;;;4994243;28;20037;-83
2022/01/14 04:16:08;;;;;;;4.22;1.77;;;6.60;99.90;;;;;;5012663;28;20419;-83
2022/01/14 04:18:34;;;;;;;10.73;5.07;;;6.60;99.90;;;;;;4993062;28;20042;-84
2022/01/14 04:20:59;;;;;;;10.55;5.60;;;6.50;99.90;;;;;;4993766;28;20465;-84
2022/01/14 04:23:25;;;;;;;1.10;1.10;;;6.60;99.90;;;;;;5009943;28;20040;-83
2022/01/14 04:25:53;;;;;;;0.20;0.20;;;6.50;99.90;;;;;;4992441;28;20045;-81
2022/01/14 04:28:20;;;;;;;8.10;3.67;;;6.50;99.90;;;;;;4996420;28;20041;-81
2022/01/14 04:30:46;;;;;;;1.17;1.05;;;6.50;99.90;;;;;;4995757;28;20067;-80
2022/01/14 04:33:12;;;;;;;0.80;0.80;;;6.50;99.90;;;;;;5009445;28;20089;-81
2022/01/14 04:35:38;;;;;;;3.03;1.55;;;6.50;99.90;;;;;;5012450;28;20529;-80
2022/01/14 04:38:04;;;;;;;1.10;1.10;;;6.40;99.90;;;;;;5011005;28;20057;-80
2022/01/14 04:40:30;;;;;;;5.05;3.20;;;6.40;99.90;;;;;;4991978;28;20045;-81
2022/01/14 04:42:57;;;;;;;4.15;3.25;;;6.30;99.90;;;;;;4993150;28;20037;-81
2022/01/14 04:48:03;;;;;;;19.70;8.10;;;6.30;99.90;;;;;;5014629;28;20069;-81
2022/01/14 04:50:29;;;;;;;15.88;2.78;;;6.30;99.90;;;;;;4992443;28;20128;-81
2022/01/14 04:52:54;;;;;;;7.72;2.83;;;6.30;99.90;;;;;;4994011;28;20160;-81
2022/01/14 04:55:23;;;;;;;10.85;6.20;;;6.30;99.90;;;;;;4994403;28;20046;-81
2022/01/14 04:57:49;;;;;;;10.95;6.70;;;6.20;99.90;;;;;;5010407;28;20125;-81
2022/01/14 05:00:18;;;;;;;6.90;2.75;;;6.20;99.90;;;;;;5011136;28;20107;-83
2022/01/14 05:02:44;;;;;;;29.58;10.50;;;6.20;99.90;;;;;;4992527;28;20455;-83
2022/01/14 05:05:10;;;;;;;26.38;6.90;;;6.30;99.90;;;;;;5011223;28;20042;-84
2022/01/14 05:07:36;;;;;;;2.78;2.53;;;6.30;99.90;;;;;;4992461;28;20042;-83
2022/01/14 05:12:34;;;;;;;27.50;12.20;;;6.30;99.90;;;;;;5005986;28;20147;-83
2022/01/14 05:15:00;;;;;;;21.00;7.70;;;6.30;99.90;;;;;;4991700;28;20064;-84
2022/01/14 05:17:26;;;;;;;11.02;6.07;;;6.30;99.90;;;;;;4987986;28;20038;-84
2022/01/14 05:19:51;;;;;;;19.75;9.35;;;6.30;99.90;;;;;;4992443;28;20223;-84
2022/01/14 05:22:18;;;;;;;7.43;5.25;;;6.30;99.90;;;;;;5007538;28;20056;-84
2022/01/14 05:24:47;;;;;;;24.77;11.32;;;6.30;99.90;;;;;;4988208;28;20236;-84
2022/01/14 05:27:13;;;;;;;14.52;7.32;;;6.30;99.90;;;;;;4993878;28;20060;-84
2022/01/14 05:29:38;;;;;;;29.85;15.38;;;6.30;99.90;;;;;;4993264;28;20491;-83
2022/01/14 05:32:05;;;;;;;8.52;3.72;;;6.30;99.90;;;;;;4992988;28;20129;-84
2022/01/14 05:34:33;;;;;;;8.05;2.78;;;6.30;99.90;;;;;;5010304;28;20143;-84
2022/01/14 05:37:00;;;;;;;12.27;6.40;;;6.20;99.90;;;;;;4993510;28;20034;-84
2022/01/14 05:39:26;;;;;;;2.80;2.13;;;6.20;99.90;;;;;;4993240;28;20073;-84
2022/01/14 05:41:52;;;;;;;1.77;0.88;;;6.20;99.90;;;;;;5008374;28;20532;-84
2022/01/14 05:44:18;;;;;;;5.40;2.47;;;6.20;99.90;;;;;;4992471;28;20037;-84
2022/01/14 05:46:44;;;;;;;2.78;1.88;;;6.20;99.90;;;;;;4994303;28;20096;-85
2022/01/14 05:49:10;;;;;;;13.30;6.07;;;6.20;99.90;;;;;;5010830;28;20042;-85
2022/01/14 05:51:35;;;;;;;7.25;4.53;;;6.20;99.90;;;;;;4992802;28;20065;-84
2022/01/14 05:54:01;;;;;;;30.98;11.07;;;6.20;99.90;;;;;;4991655;28;20065;-84
2022/01/14 05:56:27;;;;;;;30.58;5.75;;;6.30;99.90;;;;;;5025376;28;20053;-84
2022/01/14 05:58:53;;;;;;;9.02;5.18;;;6.30;99.90;;;;;;4989330;28;20095;-84
2022/01/14 06:01:18;;;;;;;2.10;1.90;;;6.30;99.90;;;;;;5013810;28;20453;-83
2022/01/14 06:03:44;;;;;;;11.88;5.75;;;6.30;99.90;;;;;;5008220;28;20038;-84
2022/01/14 06:06:09;;;;;;;4.88;3.92;;;6.40;99.90;;;;;;4993579;28;20049;-84
2022/01/14 06:08:35;;;;;;;7.05;4.90;;;6.40;99.90;;;;;;4991057;28;20045;-84
2022/01/14 06:11:01;;;;;;;18.67;5.72;;;6.40;99.90;;;;;;4991819;28;20041;-84
2022/01/14 06:13:26;;;;;;;5.70;3.40;;;6.40;99.90;;;;;;4992294;28;20108;-84
2022/01/14 06:15:52;;;;;;;7.50;3.67;;;6.40;99.90;;;;;;4992131;28;20045;-84
2022/01/14 06:18:17;;;;;;;10.60;3.47;;;6.40;99.90;;;;;;4994786;28;20053;-84
2022/01/14 06:20:43;;;;;;;3.50;3.08;;;6.40;99.90;;;;;;5008456;28;20136;-84
2022/01/14 06:23:09;;;;;;;8.20;4.35;;;6.40;99.90;;;;;;4991896;28;20042;-84
2022/01/14 06:25:34;;;;;;;6.50;3.25;;;6.40;99.90;;;;;;5008939;28;20130;-84
2022/01/14 06:28:00;;;;;;;7.50;3.47;;;6.50;99.90;;;;;;5009291;28;20048;-84
2022/01/14 06:30:26;;;;;;;12.32;2.33;;;6.50;99.90;;;;;;5007423;28;20487;-84
2022/01/14 06:32:53;;;;;;;18.73;6.90;;;6.50;99.90;;;;;;4989916;28;20125;-84
2022/01/14 06:35:19;;;;;;;20.95;9.52;;;6.50;99.90;;;;;;5008883;28;20053;-84
2022/01/14 06:37:44;;;;;;;18.60;7.55;;;6.50;99.90;;;;;;4990403;28;20045;-84
2022/01/14 06:40:11;;;;;;;10.93;5.18;;;6.50;99.90;;;;;;5007295;28;20406;-84
2022/01/14 06:42:37;;;;;;;27.80;10.13;;;6.50;99.90;;;;;;4994647;28;20100;-84
2022/01/14 06:45:04;;;;;;;8.05;5.03;;;6.50;99.90;;;;;;4990823;28;20042;-84
2022/01/14 06:47:30;;;;;;;27.35;10.38;;;6.50;99.90;;;;;;4991942;28;20052;-84
2022/01/14 06:49:56;;;;;;;17.13;7.22;;;6.50;99.90;;;;;;5010750;28;20046;-84
2022/01/14 06:52:22;;;;;;;38.88;13.82;;;6.60;99.90;;;;;;5006251;28;20046;-84
2022/01/14 06:54:47;;;;;;;12.90;5.55;;;6.60;99.90;;;;;;5006467;28;20052;-84
2022/01/14 06:57:14;;;;;;;19.27;9.35;;;6.60;99.90;;;;;;5006752;28;20819;-84
2022/01/14 06:59:39;;;;;;;20.02;8.75;;;6.60;99.90;;;;;;5006639;28;20046;-83
2022/01/14 07:02:05;;;;;;;10.18;4.18;;;6.60;99.90;;;;;;4996668;28;20032;-84
2022/01/14 07:04:30;;;;;;;6.45;4.80;;;6.60;99.90;;;;;;4995094;28;20045;-84
2022/01/14 07:06:56;;;;;;;17.33;6.75;;;6.60;99.90;;;;;;4995474;28;20050;-84
2022/01/14 07:09:22;;;;;;;18.38;8.35;;;6.60;99.90;;;;;;5011428;28;20052;-84
2022/01/14 07:11:53;;;;;;;14.70;5.03;;;6.50;99.90;;;;;;5012507;28;20125;-84
2022/01/14 07:14:19;;;;;;;8.30;3.47;;;6.60;99.90;;;;;;4993777;28;20059;-84
2022/01/14 07:16:47;;;;;;;3.33;1.98;;;6.50;99.90;;;;;;5006141;28;20125;-84
2022/01/14 07:19:13;;;;;;;25.75;11.70;;;6.50;99.90;;;;;;5010783;28;20418;-84
2022/01/14 07:21:40;;;;;;;13.88;7.07;;;6.50;99.90;;;;;;5010934;28;20494;-84
2022/01/14 07:24:06;;;;;;;4.82;3.35;;;6.60;99.90;;;;;;5011859;28;20132;-84
2022/01/14 07:26:32;;;;;;;14.82;5.60;;;6.60;99.90;;;;;;4994139;28;20038;-84
2022/01/14 07:28:58;;;;;;;18.50;7.55;;;6.50;99.90;;;;;;5009401;28;20761;-84
2022/01/14 07:31:24;;;;;;;15.05;6.57;;;6.50;99.90;;;;;;5010473;28;20180;-84
2022/01/14 07:33:49;;;;;;;15.02;7.15;;;6.50;99.90;;;;;;4993713;28;20040;-84
2022/01/14 07:36:15;;;;;;;11.27;5.55;;;6.50;99.90;;;;;;4994031;28;20506;-84
2022/01/14 07:38:40;;;;;;;5.43;2.55;;;6.50;99.90;;;;;;4995009;28;20041;-84
2022/01/14 07:41:06;;;;;;;6.65;2.85;;;6.50;99.90;;;;;;5007042;28;20045;-84
2022/01/14 07:43:34;;;;;;;9.18;4.80;;;6.50;99.90;;;;;;4996064;28;20129;-84
2022/01/14 07:46:00;;;;;;;8.38;5.00;;;6.50;99.90;;;;;;5012775;28;20049;-84
2022/01/14 07:48:25;;;;;;;3.53;2.40;;;6.60;99.90;;;;;;5007698;28;20064;-84
2022/01/14 07:50:51;;;;;;;11.85;4.95;;;6.60;99.90;;;;;;4988944;28;20406;-84
2022/01/14 07:53:17;;;;;;;10.40;4.90;;;6.60;99.90;;;;;;5011699;28;20132;-84
2022/01/14 07:55:42;;;;;;;2.88;2.00;;;6.50;99.90;;;;;;5008151;28;20461;-84
2022/01/14 07:58:08;;;;;;;3.50;2.25;;;6.50;99.90;;;;;;4994387;28;20038;-85
2022/01/14 08:00:36;;;;;;;6.40;2.03;;;6.60;99.90;;;;;;5002963;28;20049;-84
2022/01/14 08:03:02;;;;;;;8.07;4.78;;;6.60;99.90;;;;;;4991204;28;20056;-84
2022/01/14 08:05:28;;;;;;;5.18;2.70;;;6.60;99.90;;;;;;4989503;28;20045;-84
2022/01/14 08:07:57;;;;;;;13.13;4.53;;;6.50;99.90;;;;;;4990675;28;20483;-84
2022/01/14 08:10:23;;;;;;;16.67;5.72;;;6.60;99.90;;;;;;4993069;28;20042;-84
2022/01/14 08:12:48;;;;;;;26.58;4.97;;;6.60;99.90;;;;;;4984374;28;20509;-84
2022/01/14 08:15:14;;;;;;;8.48;4.93;;;6.60;99.90;;;;;;5009408;28;20557;-84
2022/01/14 08:17:40;;;;;;;3.45;2.50;;;6.60;99.90;;;;;;4997382;28;20040;-84
2022/01/14 08:20:07;;;;;;;11.90;5.05;;;6.60;99.90;;;;;;4996167;28;20402;-84
2022/01/14 08:22:37;;;;;;;9.23;4.88;;;6.60;99.90;;;;;;4993287;28;20052;-84
2022/01/14 08:25:04;;;;;;;17.73;6.60;;;6.60;99.90;;;;;;5008863;28;20049;-84
2022/01/14 08:27:30;;;;;;;3.78;1.45;;;6.70;99.90;;;;;;5007052;28;20045;-84
2022/01/14 08:29:56;;;;;;;5.68;3.70;;;6.70;99.90;;;;;;4991196;28;20049;-84
2022/01/14 08:32:22;;;;;;;7.50;3.38;;;6.70;99.90;;;;;;5000996;28;20133;-85
2022/01/14 08:34:48;;;;;;;4.75;3.95;;;6.70;99.90;;;;;;5008005;28;20149;-84
2022/01/14 08:37:14;;;;;;;11.15;6.60;;;6.70;99.90;;;;;;4994358;28;20038;-85
2022/01/14 08:39:40;;;;;;;15.68;5.15;;;6.70;99.90;;;;;;4991145;28;20046;-86
2022/01/14 08:42:08;;;;;;;4.20;3.15;;;6.70;99.90;;;;;;4993086;28;20084;-85
2022/01/14 08:44:36;;;;;;;2.65;1.83;;;6.80;99.90;;;;;;4989013;28;20547;-85
2022/01/14 08:47:02;;;;;;;3.58;1.75;;;6.80;99.90;;;;;;5009691;28;20046;-85
2022/01/14 08:49:28;;;;;;;0.65;0.65;;;6.80;99.90;;;;;;4990820;28;20050;-85
2022/01/14 08:51:54;;;;;;;0.88;0.88;;;6.80;99.90;;;;;;5011206;28;20048;-86
2022/01/14 08:54:19;;;;;;;9.00;4.25;;;6.90;99.90;;;;;;5001547;28;20038;-86
2022/01/14 08:56:45;;;;;;;2.15;2.05;;;6.90;99.90;;;;;;4997655;28;20483;-85
2022/01/14 08:59:11;;;;;;;3.13;1.38;;;6.90;99.90;;;;;;5005108;28;20124;-86
2022/01/14 09:01:40;;;;;;;13.13;4.50;;;6.90;99.90;;;;;;4992735;28;20081;-86
2022/01/14 09:04:06;;;;;;;2.20;2.00;;;7.00;99.90;;;;;;4995344;28;20042;-86
2022/01/14 09:06:31;;;;;;;9.15;3.75;;;7.00;99.90;;;;;;4989622;28;20586;-86
2022/01/14 09:08:57;;;;;;;13.10;3.03;;;7.10;99.90;;;;;;5004310;28;20065;-85
2022/01/14 09:11:23;;;;;;;15.73;3.97;;;7.10;99.90;;;;;;5002003;28;20092;-86
2022/01/14 09:13:48;;;;;;;8.80;2.63;;;7.10;99.90;;;;;;4992364;28;20092;-85
2022/01/14 09:16:17;;;;;;;9.20;3.20;;;7.10;99.90;;;;;;4988232;28;20157;-86
2022/01/14 09:18:43;;;;;;;1.13;1.05;;;7.20;99.90;;;;;;4985863;28;20479;-86
2022/01/14 09:21:09;;;;;;;5.80;2.17;;;7.20;99.90;;;;;;4991666;28;20045;-86
2022/01/14 09:23:36;;;;;;;2.90;1.75;;;7.30;99.90;;;;;;4986961;28;20038;-85
2022/01/14 09:26:02;;;;;;;7.53;3.90;;;7.30;99.90;;;;;;4992892;28;20034;-86
2022/01/14 09:28:29;;;;;;;8.63;2.78;;;7.30;99.90;;;;;;5007167;28;20851;-85
2022/01/14 09:30:54;;;;;;;3.90;1.88;;;7.40;99.90;;;;;;4993605;28;20124;-85
2022/01/14 09:33:21;;;;;;;1.73;1.58;;;7.40;99.90;;;;;;5001737;28;20463;-83
2022/01/14 09:35:47;;;;;;;5.05;1.70;;;7.50;99.90;;;;;;4990514;28;20100;-84
2022/01/14 09:38:13;;;;;;;2.83;1.38;;;7.50;99.90;;;;;;4996081;28;20084;-84
2022/01/14 09:40:42;;;;;;;3.30;1.38;;;7.50;99.90;;;;;;4998019;28;20073;-84
2022/01/14 09:43:11;;;;;;;2.30;2.05;;;7.60;99.90;;;;;;4993662;28;20049;-84
2022/01/14 09:45:37;;;;;;;11.20;3.45;;;7.60;99.90;;;;;;5007211;28;20084;-83
2022/01/14 09:48:03;;;;;;;0.77;0.77;;;7.60;99.90;;;;;;4974096;28;20046;-84
2022/01/14 09:50:29;;;;;;;5.45;2.83;;;7.60;99.90;;;;;;4989818;28;20861;-84
2022/01/14 09:52:54;;;;;;;0.77;0.70;;;7.70;99.90;;;;;;4973865;28;20132;-84
2022/01/14 09:55:22;;;;;;;0.70;0.70;;;7.70;99.90;;;;;;4993215;28;20037;-84
2022/01/14 09:57:48;;;;;;;5.03;2.05;;;7.70;99.90;;;;;;4988912;28;20053;-83
2022/01/14 10:00:14;;;;;;;8.70;2.50;;;7.70;99.90;;;;;;5009729;28;20717;-84
2022/01/14 10:02:42;;;;;;;10.23;2.50;;;7.70;99.90;;;;;;5009985;28;20402;-83
2022/01/14 10:05:09;;;;;;;43.90;3.25;;;7.80;99.90;;;;;;4993425;28;20367;-84
2022/01/14 10:07:35;;;;;;;7.30;2.38;;;7.80;99.90;;;;;;4988746;28;20054;-84
2022/01/14 10:10:21;;;;;;;10.40;2.30;;;7.80;99.90;;;;;;4982233;28;20050;-86
2022/01/14 10:12:47;;;;;;;8.70;1.65;;;7.80;99.90;;;;;;5007749;28;20046;-83
2022/01/14 10:15:13;;;;;;;9.15;1.85;;;7.90;99.90;;;;;;5007960;28;20053;-83
2022/01/14 10:17:44;;;;;;;19.70;1.90;;;7.90;99.90;;;;;;4992077;28;20100;-84
2022/01/14 10:20:13;;;;;;;1.48;1.13;;;7.90;99.90;;;;;;5005869;28;20050;-83
2022/01/14 10:22:43;;;;;;;7.88;2.45;;;7.90;99.90;;;;;;5007676;28;20046;-84
2022/01/14 10:25:20;;;;;;;12.63;2.83;;;7.90;99.90;;;;;;5001633;28;20034;-84
2022/01/14 10:27:48;;;;;;;11.98;3.20;;;7.90;99.90;;;;;;5006770;28;20054;-84
2022/01/14 10:30:27;;;;;;;6.75;2.42;;;7.90;99.90;;;;;;4989683;28;20085;-86
2022/01/14 10:33:05;;;;;;;13.13;1.80;;;7.90;99.90;;;;;;4987857;28;20042;-84
2022/01/14 10:35:36;;;;;;;6.43;1.92;;;7.90;99.90;;;;;;4986135;28;20042;-86
2022/01/14 10:38:08;;;;;;;5.88;2.10;;;7.90;99.90;;;;;;4991988;28;20375;-85
2022/01/14 10:40:38;;;;;;;11.52;3.33;;;7.90;99.90;;;;;;4985918;28;20045;-86
2022/01/14 10:43:15;;;;;;;13.68;3.38;;;7.90;99.90;;;;;;4987598;28;20042;-85
2022/01/14 10:45:43;;;;;;;11.27;2.65;;;7.90;99.90;;;;;;4988564;28;20332;-85
2022/01/14 10:48:28;;;;;;;7.00;2.33;;;7.90;99.90;;;;;;4984427;28;20402;-85
2022/01/14 10:51:02;;;;;;;11.40;2.90;;;7.90;99.90;;;;;;4984550;28;20180;-85
2022/01/14 10:53:43;;;;;;;13.07;2.85;;;7.90;99.90;;;;;;4988989;28;20080;-85
2022/01/14 10:56:10;;;;;;;10.50;2.40;;;7.80;99.90;;;;;;5002223;28;20037;-85
2022/01/14 10:58:39;;;;;;;7.70;2.83;;;7.80;99.90;;;;;;4984510;28;20076;-85
2022/01/14 11:01:13;;;;;;;5.80;2.03;;;7.90;99.90;;;;;;4989332;28;20061;-85
2022/01/14 11:03:43;;;;;;;14.95;3.08;;;7.80;99.90;;;;;;5007238;28;20499;-85
2022/01/14 11:06:24;;;;;;;15.68;2.75;;;7.80;99.90;;;;;;4988427;28;20049;-85
2022/01/14 11:09:08;;;;;;;8.35;2.92;;;7.80;99.90;;;;;;5001979;28;20439;-85
2022/01/14 11:11:36;;;;;;;6.35;2.13;;;7.90;99.90;;;;;;4983018;28;20049;-85
2022/01/14 11:14:03;;;;;;;6.65;1.63;;;7.90;99.90;;;;;;4992299;28;20042;-85
2022/01/14 11:16:29;;;;;;;13.55;2.92;;;7.90;99.90;;;;;;4987717;28;20038;-85
2022/01/14 11:19:00;;;;;;;5.20;1.92;;;7.90;99.90;;;;;;4988520;28;20108;-84
2022/01/14 11:24:18;;;;;;;8.88;2.70;;;7.90;99.90;;;;;;4999823;28;20716;-85
2022/01/14 11:26:46;;;;;;;15.90;4.47;;;7.90;99.90;;;;;;4972019;28;20061;-85
2022/01/14 11:29:17;;;;;;;10.45;3.08;;;7.90;99.90;;;;;;4998716;28;20052;-84
2022/01/14 11:31:43;;;;;;;6.07;2.47;;;7.90;99.90;;;;;;4982825;28;20129;-85
2022/01/14 11:34:30;;;;;;;15.73;3.33;;;7.80;99.90;;;;;;4991651;28;20121;-86
2022/01/14 11:36:59;;;;;;;2.40;1.25;;;7.80;99.90;;;;;;4993383;28;20050;-85
2022/01/14 11:39:31;;;;;;;5.68;2.08;;;7.90;99.90;;;;;;4989668;28;20099;-85
2022/01/14 11:42:02;;;;;;;2.60;1.48;;;7.90;99.90;;;;;;5001102;28;20137;-85
2022/01/14 11:45:00;;;;;;;8.43;1.98;;;7.90;99.90;;;;;;4980327;28;20058;-85
2022/01/14 11:47:36;;;;;;;4.35;1.77;;;7.90;99.90;;;;;;5000392;28;20502;-85
2022/01/14 11:50:24;;;;;;;10.48;2.72;;;7.90;99.90;;;;;;5000708;28;20124;-85
2022/01/14 11:52:50;;;;;;;1.02;0.93;;;8.00;99.90;;;;;;4985856;28;20069;-85
2022/01/14 11:55:22;;;;;;;14.52;2.90;;;7.90;99.90;;;;;;5002286;28;20044;-85
2022/01/14 11:57:48;;;;;;;8.25;2.58;;;8.00;99.90;;;;;;4979441;28;20045;-84
2022/01/14 12:00:30;;;;;;;13.65;3.05;;;8.00;99.90;;;;;;4986824;28;20045;-86
2022/01/14 12:03:26;;;;;;;10.55;0.88;;;8.00;99.90;;;;;;4994462;28;20050;-85
2022/01/14 12:06:03;;;;;;;4.47;2.20;;;8.00;99.90;;;;;;4987199;28;20143;-85
2022/01/14 12:08:36;;;;;;;9.25;1.95;;;8.00;99.90;;;;;;4999628;28;20086;-85
2022/01/14 12:11:05;;;;;;;4.68;2.55;;;8.00;99.90;;;;;;5003087;28;20506;-85
2022/01/14 12:13:54;;;;;;;9.73;2.83;;;8.00;99.90;;;;;;4990044;28;20878;-84
2022/01/14 12:16:35;;;;;;;13.18;3.95;;;8.00;99.90;;;;;;4989832;28;20053;-85
2022/01/14 12:19:02;;;;;;;9.30;2.53;;;8.00;99.90;;;;;;4979323;28;20070;-85
2022/01/14 12:21:48;;;;;;;6.15;1.15;;;8.00;99.90;;;;;;4987676;28;20606;-85
2022/01/14 12:24:27;;;;;;;10.00;2.63;;;8.00;99.90;;;;;;5003534;28;20054;-85
2022/01/14 12:27:03;;;;;;;14.95;3.72;;;8.00;99.90;;;;;;5002739;28;20502;-85
2022/01/14 12:30:00;;;;;;;4.38;2.00;;;8.00;99.90;;;;;;4986327;28;20049;-85
2022/01/14 12:32:28;;;;;;;9.75;2.75;;;8.00;99.90;;;;;;4986845;28;20042;-85
2022/01/14 12:34:54;;;;;;;5.72;2.40;;;8.00;99.90;;;;;;4977370;28;20041;-85
2022/01/14 12:37:25;;;;;;;12.18;2.28;;;8.00;99.90;;;;;;4993016;28;20042;-85
2022/01/14 12:39:52;;;;;;;20.63;4.00;;;8.10;99.90;;;;;;4980886;28;20052;-85
2022/01/14 12:42:19;;;;;;;12.25;3.30;;;8.10;99.90;;;;;;4987051;28;20517;-84
2022/01/14 12:44:47;;;;;;;16.67;2.40;;;8.10;99.90;;;;;;4988227;28;20044;-85
2022/01/14 12:47:20;;;;;;;11.68;3.53;;;8.10;99.90;;;;;;4990215;28;20065;-85
2022/01/14 12:49:47;;;;;;;9.43;2.65;;;8.10;99.90;;;;;;4987696;28;20065;-86
2022/01/14 12:52:17;;;;;;;13.63;2.97;;;8.10;99.90;;;;;;5001080;28;20084;-86
2022/01/14 12:54:46;;;;;;;4.63;1.23;;;8.10;99.90;;;;;;5002187;28;20117;-86
2022/01/14 12:57:16;;;;;;;3.00;1.65;;;8.00;99.90;;;;;;4980483;28;20073;-86
2022/01/14 12:59:44;;;;;;;9.98;3.63;;;8.10;99.90;;;;;;4988291;28;20054;-86
2022/01/14 13:02:16;;;;;;;1.27;0.63;;;8.10;99.90;;;;;;4995639;28;20132;-85
2022/01/14 13:04:42;;;;;;;10.27;2.58;;;8.00;99.90;;;;;;4984726;28;20075;-86
2022/01/14 13:07:08;;;;;;;1.08;0.90;;;8.00;99.90;;;;;;5002032;28;20077;-83
2022/01/14 13:09:36;;;;;;;9.30;2.88;;;8.00;99.90;;;;;;4994846;28;20053;-84
2022/01/14 13:12:07;;;;;;;17.73;3.10;;;8.00;99.90;;;;;;5000218;28;20053;-83
2022/01/14 13:14:47;;;;;;;8.05;2.85;;;8.00;99.90;;;;;;4986613;28;20050;-84
2022/01/14 13:17:17;;;;;;;0.20;0.20;;;8.00;99.90;;;;;;4987348;28;20482;-83
2022/01/14 13:19:45;;;;;;;20.75;2.30;;;8.00;99.90;;;;;;4986950;28;20128;-84
2022/01/14 13:22:14;;;;;;;17.30;3.30;;;8.00;99.90;;;;;;5001813;28;20054;-84
2022/01/14 13:24:42;;;;;;;11.77;3.22;;;8.00;99.90;;;;;;5000884;28;20115;-83
2022/01/14 13:27:11;;;;;;;7.18;2.22;;;8.00;99.90;;;;;;5005363;28;20044;-83
2022/01/14 13:29:41;;;;;;;6.82;1.98;;;8.00;99.90;;;;;;5000104;28;20497;-83
2022/01/14 13:32:08;;;;;;;7.93;2.05;;;8.00;99.90;;;;;;4992546;28;20069;-85
2022/01/14 13:34:34;;;;;;;18.77;2.97;;;8.00;99.90;;;;;;4998629;28;20498;-83